Time;durP1;ratioP1;P1;durP2;ratioP2;P2;SDS_P1;SDS_P2;PMS_P1;PMS_P2;Temp;Humidity;BMP_temperature;BMP_pressure;BME280_temperature;BME280_humidity;BME280_pressure;Samples;Min_cycle;Max_cycle;Signal;HPM_P1;HPM_P2
2021/03/10 00:01:56;;;;;;;24.55;13.95;;;4.70;86.30;;;;;;5107835;28;20166;-75
2021/03/10 00:04:21;;;;;;;21.65;13.35;;;4.70;86.40;;;;;;5107571;28;20019;-75
2021/03/10 00:06:47;;;;;;;22.05;13.02;;;4.60;86.60;;;;;;5092237;28;20040;-76
2021/03/10 00:09:13;;;;;;;25.58;15.43;;;4.60;86.70;;;;;;5107228;28;20023;-76
2021/03/10 00:11:38;;;;;;;22.77;13.95;;;4.60;86.80;;;;;;5107694;28;20031;-76
2021/03/10 00:14:04;;;;;;;25.90;15.30;;;4.50;86.90;;;;;;5110584;28;20020;-75
2021/03/10 00:16:29;;;;;;;23.52;14.65;;;4.50;86.90;;;;;;5095772;28;20012;-75
2021/03/10 00:18:55;;;;;;;24.00;13.73;;;4.50;87.10;;;;;;5111661;28;20461;-75
2021/03/10 00:21:20;;;;;;;22.67;15.00;;;4.50;87.20;;;;;;5111360;28;20027;-74
2021/03/10 00:23:46;;;;;;;26.55;15.18;;;4.50;87.40;;;;;;5111597;28;20158;-75
2021/03/10 00:26:12;;;;;;;22.98;14.65;;;4.50;87.50;;;;;;5095629;28;20016;-75
2021/03/10 00:28:37;;;;;;;22.60;14.23;;;4.50;87.60;;;;;;5095640;28;20452;-75
2021/03/10 00:31:03;;;;;;;21.92;13.65;;;4.60;87.80;;;;;;5111455;28;20308;-76
2021/03/10 00:33:28;;;;;;;25.85;14.68;;;4.60;88.00;;;;;;5111125;28;20024;-76
2021/03/10 00:35:54;;;;;;;23.85;15.50;;;4.70;88.00;;;;;;5111405;28;20020;-77
2021/03/10 00:38:20;;;;;;;23.75;14.75;;;4.70;87.80;;;;;;5111154;28;20085;-76
2021/03/10 00:40:45;;;;;;;24.25;15.15;;;4.70;88.00;;;;;;5095598;28;20024;-76
2021/03/10 00:43:11;;;;;;;26.98;14.55;;;4.80;88.00;;;;;;5095599;28;20016;-76
2021/03/10 00:45:36;;;;;;;25.13;14.48;;;4.80;88.00;;;;;;5111047;28;20050;-76
2021/03/10 00:48:02;;;;;;;25.33;15.38;;;4.80;88.00;;;;;;5095294;28;20050;-76
2021/03/10 00:50:28;;;;;;;23.13;14.07;;;4.90;88.10;;;;;;5110618;28;20035;-76
2021/03/10 00:52:58;;;;;;;24.85;15.70;;;4.90;87.80;;;;;;5095384;28;20023;-76
2021/03/10 00:55:23;;;;;;;26.25;16.40;;;4.90;88.10;;;;;;5110685;28;20020;-77
2021/03/10 00:57:49;;;;;;;26.67;15.35;;;4.80;88.70;;;;;;5110949;28;20020;-77
2021/03/10 01:00:19;;;;;;;24.20;14.88;;;4.80;87.80;;;;;;5095022;28;20016;-75
2021/03/10 01:02:44;;;;;;;23.25;15.07;;;4.80;88.10;;;;;;5110924;28;20019;-75
2021/03/10 01:05:11;;;;;;;24.15;15.50;;;4.70;88.30;;;;;;5094922;28;20016;-75
2021/03/10 01:07:37;;;;;;;29.92;15.40;;;4.70;88.00;;;;;;5110440;28;20077;-74
2021/03/10 01:10:08;;;;;;;23.65;14.75;;;4.60;88.10;;;;;;5094790;28;20067;-75
2021/03/10 01:12:33;;;;;;;24.92;16.08;;;4.60;87.90;;;;;;5110443;28;20020;-75
2021/03/10 01:14:59;;;;;;;23.98;15.30;;;4.60;88.10;;;;;;5110691;28;20113;-76
2021/03/10 01:17:25;;;;;;;28.17;15.70;;;4.50;87.90;;;;;;5110421;28;20008;-76
2021/03/10 01:19:51;;;;;;;25.63;14.88;;;4.50;88.00;;;;;;5110456;28;20356;-75
2021/03/10 01:22:16;;;;;;;29.90;15.18;;;4.50;88.00;;;;;;5110326;28;20016;-76
2021/03/10 01:24:42;;;;;;;26.17;15.13;;;4.40;88.30;;;;;;5109342;28;20531;-75
2021/03/10 01:27:08;;;;;;;23.70;14.82;;;4.40;87.70;;;;;;5110415;28;20449;-75
2021/03/10 01:29:34;;;;;;;24.50;14.35;;;4.30;87.60;;;;;;5109944;28;20020;-75
2021/03/10 01:32:00;;;;;;;26.00;15.43;;;4.30;87.70;;;;;;5110375;28;20024;-75
2021/03/10 01:34:25;;;;;;;28.42;17.20;;;4.30;87.80;;;;;;5094208;28;20333;-75
2021/03/10 01:36:51;;;;;;;22.27;13.70;;;4.20;87.80;;;;;;5110109;28;20064;-76
2021/03/10 01:39:16;;;;;;;28.60;16.85;;;4.20;87.70;;;;;;5093907;28;20032;-76
2021/03/10 01:41:42;;;;;;;26.33;15.20;;;4.20;88.10;;;;;;5109738;28;20115;-75
2021/03/10 01:44:07;;;;;;;25.70;15.85;;;4.10;88.20;;;;;;5094136;28;20016;-76
2021/03/10 01:46:39;;;;;;;28.15;16.75;;;4.10;88.20;;;;;;5109792;28;20090;-75
2021/03/10 01:49:05;;;;;;;28.13;17.33;;;4.10;88.30;;;;;;5093900;28;20028;-76
2021/03/10 01:51:31;;;;;;;26.30;16.67;;;4.00;88.50;;;;;;5109632;28;20162;-75
2021/03/10 01:53:56;;;;;;;27.55;17.15;;;4.00;88.70;;;;;;5109745;28;20231;-75
2021/03/10 01:56:25;;;;;;;29.00;16.65;;;4.00;88.80;;;;;;5109551;28;20456;-76
2021/03/10 01:58:52;;;;;;;27.70;16.70;;;4.00;88.70;;;;;;5094146;28;20020;-76
2021/03/10 02:01:18;;;;;;;29.50;17.75;;;3.90;89.50;;;;;;5109537;28;20052;-75
2021/03/10 02:03:43;;;;;;;28.10;17.15;;;3.90;89.30;;;;;;5094140;28;20347;-76
2021/03/10 02:06:14;;;;;;;27.40;17.23;;;4.00;89.30;;;;;;5093921;28;20044;-76
2021/03/10 02:09:03;;;;;;;29.30;16.73;;;4.00;89.40;;;;;;5109226;28;20074;-76
2021/03/10 02:11:51;;;;;;;28.02;16.45;;;3.90;89.20;;;;;;5109220;28;20044;-75
2021/03/10 02:14:24;;;;;;;26.17;17.17;;;3.90;89.30;;;;;;5109442;28;20042;-75
2021/03/10 02:17:05;;;;;;;29.67;16.80;;;3.90;89.70;;;;;;5109112;28;20060;-75
2021/03/10 02:20:00;;;;;;;28.23;16.30;;;3.90;89.70;;;;;;5108996;28;20462;-76
2021/03/10 02:22:41;;;;;;;30.73;18.67;;;3.90;89.90;;;;;;5109148;28;20399;-75
2021/03/10 02:25:16;;;;;;;28.00;17.15;;;3.90;89.70;;;;;;5109256;28;20028;-76
2021/03/10 02:27:57;;;;;;;28.70;16.10;;;3.80;89.60;;;;;;5099131;28;20087;-76
2021/03/10 02:30:27;;;;;;;31.40;18.05;;;3.80;89.80;;;;;;5113573;28;20356;-76
2021/03/10 02:32:59;;;;;;;31.02;17.92;;;3.80;89.70;;;;;;5112540;28;20019;-76
2021/03/10 02:35:26;;;;;;;29.45;17.33;;;3.80;89.60;;;;;;5111988;28;20028;-76
2021/03/10 02:37:56;;;;;;;31.15;18.20;;;3.80;89.90;;;;;;5112303;28;20027;-76
2021/03/10 02:40:25;;;;;;;28.07;18.00;;;3.80;90.00;;;;;;5113570;28;20023;-75
2021/03/10 02:42:51;;;;;;;27.42;17.42;;;3.80;90.30;;;;;;5112256;28;20422;-76
2021/03/10 02:45:19;;;;;;;33.60;18.20;;;3.80;89.90;;;;;;5112286;28;20019;-76
2021/03/10 02:47:46;;;;;;;28.88;17.55;;;3.80;89.90;;;;;;5112117;28;20122;-76
2021/03/10 02:50:12;;;;;;;27.90;17.15;;;3.90;90.00;;;;;;5112182;28;20106;-76
2021/03/10 02:52:39;;;;;;;29.15;16.75;;;3.90;90.00;;;;;;5111822;28;20325;-76
2021/03/10 02:55:05;;;;;;;29.52;17.60;;;3.90;90.00;;;;;;5113554;28;20015;-76
2021/03/10 02:57:32;;;;;;;27.35;17.23;;;3.90;90.00;;;;;;5111732;28;20353;-75
2021/03/10 03:00:03;;;;;;;30.05;18.38;;;3.90;89.90;;;;;;5111626;28;20022;-77
2021/03/10 03:02:28;;;;;;;;;;;4.00;90.00;;;;;;5112217;28;20100;-75
2021/03/10 03:04:54;;;;;;;28.30;16.30;;;4.00;90.00;;;;;;5111977;28;20002;-77
2021/03/10 03:07:20;;;;;;;28.42;18.02;;;4.10;90.00;;;;;;5112710;28;20123;-76
2021/03/10 03:09:46;;;;;;;28.13;17.13;;;4.10;90.10;;;;;;5111182;28;20023;-75
2021/03/10 03:12:13;;;;;;;31.33;17.70;;;4.10;90.20;;;;;;5111843;28;20031;-76
2021/03/10 03:14:41;;;;;;;28.35;16.58;;;4.10;90.20;;;;;;5112532;28;20460;-77
2021/03/10 03:17:08;;;;;;;28.13;17.13;;;4.20;90.20;;;;;;5111714;28;20026;-76
2021/03/10 03:19:34;;;;;;;32.05;19.23;;;4.20;90.20;;;;;;5111466;28;20406;-76
2021/03/10 03:22:01;;;;;;;30.33;17.27;;;4.20;90.20;;;;;;5113031;28;20044;-75
2021/03/10 03:24:29;;;;;;;30.13;18.58;;;4.20;90.30;;;;;;5111438;28;20023;-76
2021/03/10 03:26:56;;;;;;;27.92;17.27;;;4.30;90.20;;;;;;5111539;28;20419;-76
2021/03/10 03:29:23;;;;;;;25.88;17.50;;;4.30;90.20;;;;;;5112744;28;20050;-76
2021/03/10 03:31:51;;;;;;;29.80;18.48;;;4.30;90.10;;;;;;5112585;28;20027;-76
2021/03/10 03:34:17;;;;;;;31.67;19.42;;;4.40;90.10;;;;;;5111670;28;20031;-75
2021/03/10 03:36:43;;;;;;;28.27;17.00;;;4.40;90.10;;;;;;5112316;27;20030;-75
2021/03/10 03:39:09;;;;;;;29.23;17.50;;;4.40;90.10;;;;;;5111346;28;20024;-77
2021/03/10 03:41:35;;;;;;;30.38;18.77;;;4.40;90.00;;;;;;5112227;28;20023;-75
2021/03/10 03:44:02;;;;;;;30.40;17.95;;;4.50;90.00;;;;;;5112766;28;20026;-75
2021/03/10 03:46:30;;;;;;;27.33;17.30;;;4.50;90.10;;;;;;5112558;28;20019;-75
2021/03/10 03:48:59;;;;;;;28.02;18.95;;;4.60;90.10;;;;;;5115432;28;20034;-75
2021/03/10 03:51:28;;;;;;;28.77;18.13;;;4.60;90.00;;;;;;5115464;28;20106;-75
2021/03/10 03:54:01;;;;;;;27.98;18.15;;;4.60;90.00;;;;;;5116968;27;20024;-75
2021/03/10 03:56:28;;;;;;;29.55;17.98;;;4.70;89.90;;;;;;5115298;28;20042;-76
2021/03/10 03:58:54;;;;;;;31.08;18.45;;;4.70;89.70;;;;;;5115466;28;20059;-75
2021/03/10 04:01:20;;;;;;;31.50;19.13;;;4.70;89.70;;;;;;5115393;28;20137;-76
2021/03/10 04:03:46;;;;;;;29.10;19.13;;;4.80;89.70;;;;;;5115255;28;20020;-76
2021/03/10 04:06:12;;;;;;;26.30;16.92;;;4.80;90.10;;;;;;5116322;28;20093;-76
2021/03/10 04:08:38;;;;;;;31.38;19.92;;;4.80;89.60;;;;;;5116232;28;20028;-76
2021/03/10 04:11:06;;;;;;;27.17;16.60;;;4.80;89.50;;;;;;5115182;28;20354;-76
2021/03/10 04:13:31;;;;;;;29.80;18.63;;;4.90;89.60;;;;;;5116260;28;20452;-76
2021/03/10 04:15:57;;;;;;;30.17;20.17;;;4.90;89.60;;;;;;5116500;28;20031;-76
2021/03/10 04:18:23;;;;;;;26.45;16.75;;;4.90;89.50;;;;;;5116384;28;20035;-76
2021/03/10 04:20:48;;;;;;;31.40;18.75;;;4.90;89.40;;;;;;5114771;28;20031;-76
2021/03/10 04:23:14;;;;;;;32.15;19.50;;;4.90;89.60;;;;;;5115112;28;20038;-76
2021/03/10 04:25:40;;;;;;;34.22;19.42;;;4.90;89.80;;;;;;5116399;28;20028;-76
2021/03/10 04:28:05;;;;;;;33.95;20.75;;;4.90;89.70;;;;;;5116107;28;20367;-76
2021/03/10 04:30:32;;;;;;;30.65;19.33;;;4.90;89.90;;;;;;5114677;28;20060;-76
2021/03/10 04:32:58;;;;;;;31.23;19.55;;;4.80;90.00;;;;;;5116222;28;20076;-76
2021/03/10 04:35:24;;;;;;;30.20;18.98;;;4.80;90.00;;;;;;5114910;28;20019;-76
2021/03/10 04:37:49;;;;;;;29.40;18.90;;;4.90;90.20;;;;;;5114474;28;20015;-76
2021/03/10 04:40:16;;;;;;;34.55;20.23;;;4.80;90.20;;;;;;5116086;28;20022;-75
2021/03/10 04:42:42;;;;;;;29.77;19.75;;;4.90;90.30;;;;;;5114497;28;20069;-76
2021/03/10 04:45:09;;;;;;;32.47;20.55;;;4.90;90.40;;;;;;5114582;28;20023;-74
2021/03/10 04:47:35;;;;;;;30.92;19.40;;;4.90;90.40;;;;;;5115733;28;20012;-76
2021/03/10 04:50:01;;;;;;;33.70;20.55;;;4.90;90.50;;;;;;5114410;28;20043;-76
2021/03/10 04:52:26;;;;;;;31.15;19.13;;;4.90;90.50;;;;;;5115848;28;20460;-76
2021/03/10 04:54:52;;;;;;;31.70;20.67;;;5.00;90.50;;;;;;5114168;28;20382;-77
2021/03/10 04:57:17;;;;;;;34.30;19.60;;;5.00;90.80;;;;;;5115738;28;20448;-77
2021/03/10 04:59:43;;;;;;;32.83;20.52;;;5.00;90.40;;;;;;5114135;28;20095;-75
2021/03/10 05:02:09;;;;;;;34.00;19.15;;;5.00;90.40;;;;;;5115568;28;20397;-75
2021/03/10 05:04:34;;;;;;;30.95;20.52;;;5.10;90.80;;;;;;5114017;28;20015;-74
2021/03/10 05:07:00;;;;;;;34.58;19.98;;;5.10;90.40;;;;;;5113809;28;20176;-75
2021/03/10 05:09:25;;;;;;;34.60;20.55;;;5.10;90.40;;;;;;5114103;28;20478;-75
2021/03/10 05:11:51;;;;;;;29.52;20.02;;;5.10;90.30;;;;;;5115454;28;20464;-76
2021/03/10 05:14:16;;;;;;;33.05;20.92;;;5.10;90.30;;;;;;5114009;28;20448;-75
2021/03/10 05:16:42;;;;;;;32.13;20.33;;;5.10;90.30;;;;;;5115329;28;20020;-75
2021/03/10 05:19:07;;;;;;;36.03;21.20;;;5.10;90.30;;;;;;5115067;28;20028;-75
2021/03/10 05:21:33;;;;;;;31.40;21.05;;;5.20;90.40;;;;;;5113652;28;20019;-74
2021/03/10 05:23:58;;;;;;;32.00;21.25;;;5.10;90.30;;;;;;5115557;28;20028;-75
2021/03/10 05:26:24;;;;;;;34.05;20.88;;;5.10;90.30;;;;;;5115137;28;20020;-76
2021/03/10 05:28:50;;;;;;;31.42;20.92;;;5.10;90.40;;;;;;5114391;28;20031;-76
2021/03/10 05:31:15;;;;;;;36.75;22.38;;;5.10;90.40;;;;;;5113667;28;20114;-75
2021/03/10 05:33:41;;;;;;;33.58;21.92;;;5.00;90.70;;;;;;5113510;28;20456;-75
2021/03/10 05:36:07;;;;;;;34.40;21.17;;;5.00;90.50;;;;;;5113657;28;20443;-75
2021/03/10 05:38:33;;;;;;;38.90;21.48;;;5.10;90.60;;;;;;5113308;28;20050;-76
2021/03/10 05:40:59;;;;;;;33.45;21.42;;;5.00;90.80;;;;;;5114876;28;20047;-75
2021/03/10 05:43:25;;;;;;;32.70;21.00;;;5.00;90.60;;;;;;5113489;28;20054;-76
2021/03/10 05:45:50;;;;;;;35.20;21.55;;;5.00;90.60;;;;;;5113240;28;20027;-77
2021/03/10 05:48:16;;;;;;;31.02;20.55;;;5.10;90.70;;;;;;5114865;28;20356;-75
2021/03/10 05:50:42;;;;;;;30.80;20.45;;;5.10;90.70;;;;;;5113007;28;20060;-75
2021/03/10 05:53:12;;;;;;;33.42;20.33;;;5.10;90.70;;;;;;5114282;28;20027;-76
2021/03/10 05:55:40;;;;;;;32.80;19.83;;;5.10;90.60;;;;;;5113047;28;20027;-76
2021/03/10 05:58:13;;;;;;;35.72;22.10;;;5.10;90.60;;;;;;5113145;28;20031;-76
2021/03/10 06:00:43;;;;;;;37.70;23.10;;;5.10;90.70;;;;;;5112846;28;20014;-76
2021/03/10 06:03:10;;;;;;;33.67;20.27;;;5.10;90.70;;;;;;5113218;28;20016;-76
2021/03/10 06:05:36;;;;;;;33.67;22.40;;;5.20;90.70;;;;;;5112538;28;20084;-76
2021/03/10 06:08:03;;;;;;;35.47;21.35;;;5.20;90.60;;;;;;5112972;28;20406;-76
2021/03/10 06:10:40;;;;;;;32.33;20.67;;;5.20;90.70;;;;;;5112360;28;20363;-75
2021/03/10 06:13:20;;;;;;;32.60;21.80;;;5.20;90.60;;;;;;5114232;28;20023;-74
2021/03/10 06:15:46;;;;;;;34.17;21.02;;;5.20;90.60;;;;;;5113976;27;20016;-75
2021/03/10 06:18:32;;;;;;;34.78;22.33;;;5.20;90.70;;;;;;5114141;28;20105;-76
2021/03/10 06:21:17;;;;;;;34.35;21.95;;;5.20;90.60;;;;;;5112370;28;20011;-75
2021/03/10 06:24:01;;;;;;;35.63;21.88;;;5.20;90.60;;;;;;5113744;28;20022;-75
2021/03/10 06:26:32;;;;;;;33.70;20.40;;;5.30;90.70;;;;;;5113889;28;20100;-75
2021/03/10 06:29:01;;;;;;;34.70;21.58;;;5.20;90.60;;;;;;5113631;28;20103;-75
2021/03/10 06:31:34;;;;;;;35.03;21.48;;;5.30;90.60;;;;;;5113909;28;20020;-75
2021/03/10 06:34:12;;;;;;;32.10;20.77;;;5.30;90.60;;;;;;5112674;28;20022;-75
2021/03/10 06:36:47;;;;;;;35.05;22.52;;;5.20;90.60;;;;;;5111996;28;20027;-75
2021/03/10 06:39:27;;;;;;;34.63;21.88;;;5.30;90.60;;;;;;5112355;28;20015;-75
2021/03/10 06:41:53;;;;;;;31.50;20.83;;;5.30;90.60;;;;;;5112200;28;20012;-75
2021/03/10 06:44:21;;;;;;;34.40;22.15;;;5.30;90.60;;;;;;5113659;28;20023;-75
2021/03/10 06:46:51;;;;;;;33.28;22.85;;;5.30;90.50;;;;;;5111898;28;20023;-75
2021/03/10 06:49:17;;;;;;;36.03;23.47;;;5.30;90.50;;;;;;5113639;28;20027;-76
2021/03/10 06:52:18;;;;;;;36.40;22.98;;;5.30;90.50;;;;;;5111849;28;20265;-76
2021/03/10 06:54:53;;;;;;;34.35;21.40;;;5.30;90.60;;;;;;5013453;28;20028;-77
2021/03/10 06:57:19;;;;;;;35.40;20.95;;;5.30;90.60;;;;;;5100978;28;20126;-76
2021/03/10 06:59:46;;;;;;;35.03;22.63;;;5.30;90.60;;;;;;5111765;28;20482;-75
2021/03/10 07:02:14;;;;;;;33.72;21.52;;;5.40;90.70;;;;;;5111774;28;20019;-76
2021/03/10 07:04:46;;;;;;;36.83;22.27;;;5.40;90.60;;;;;;5111605;28;20016;-76
2021/03/10 07:07:13;;;;;;;34.35;22.48;;;5.40;90.50;;;;;;5113303;28;20047;-76
2021/03/10 07:09:38;;;;;;;38.35;23.02;;;5.40;90.60;;;;;;5111180;28;20128;-76
2021/03/10 07:12:15;;;;;;;39.58;23.90;;;5.40;90.70;;;;;;5111439;28;20051;-75
2021/03/10 07:14:42;;;;;;;40.78;24.80;;;5.40;90.70;;;;;;5111428;28;20024;-76
2021/03/10 07:17:10;;;;;;;39.55;25.45;;;5.40;90.80;;;;;;5111721;28;20024;-75
2021/03/10 07:19:36;;;;;;;50.95;26.05;;;5.40;90.90;;;;;;5111762;28;20088;-76
2021/03/10 07:22:06;;;;;;;45.03;26.08;;;5.50;91.00;;;;;;5110368;28;20448;-75
2021/03/10 07:24:49;;;;;;;46.67;28.33;;;5.50;91.00;;;;;;5111190;28;20444;-75
2021/03/10 07:27:18;;;;;;;44.42;27.98;;;5.50;91.10;;;;;;5110264;28;20024;-76
2021/03/10 07:29:44;;;;;;;49.10;29.45;;;5.50;91.20;;;;;;5107821;28;20410;-75
2021/03/10 07:32:10;;;;;;;59.70;29.58;;;5.60;91.20;;;;;;5092577;28;20031;-75
2021/03/10 07:34:39;;;;;;;58.28;29.08;;;5.60;91.20;;;;;;5107819;28;20012;-76
2021/03/10 07:37:12;;;;;;;55.92;32.92;;;5.60;91.30;;;;;;5107444;28;20103;-76
2021/03/10 07:39:38;;;;;;;61.63;34.50;;;5.70;91.20;;;;;;5107152;28;20372;-76
2021/03/10 07:42:15;;;;;;;62.92;36.47;;;5.70;91.30;;;;;;5107696;28;20020;-77
2021/03/10 07:44:41;;;;;;;59.50;35.03;;;5.80;91.60;;;;;;5092180;28;20360;-76
2021/03/10 07:47:08;;;;;;;65.32;33.05;;;5.80;91.30;;;;;;5092341;28;20051;-76
2021/03/10 07:49:34;;;;;;;70.05;39.63;;;5.80;91.40;;;;;;5092552;28;20535;-76
2021/03/10 07:52:18;;;;;;;67.68;40.30;;;5.90;91.50;;;;;;5105099;28;20157;-76
2021/03/10 07:54:54;;;;;;;66.13;38.00;;;5.90;91.40;;;;;;5108404;28;20106;-76
2021/03/10 07:57:20;;;;;;;75.05;41.65;;;6.00;91.40;;;;;;5094370;28;20077;-77
2021/03/10 07:59:59;;;;;;;67.60;37.65;;;6.00;91.40;;;;;;5092982;28;20079;-77
2021/03/10 08:02:26;;;;;;;75.10;40.53;;;6.00;91.40;;;;;;5091925;28;20020;-76
2021/03/10 08:05:01;;;;;;;74.88;43.22;;;6.10;91.40;;;;;;5090359;28;20025;-76
2021/03/10 08:07:32;;;;;;;75.25;41.80;;;6.10;91.40;;;;;;5091706;28;20112;-76
2021/03/10 08:09:58;;;;;;;73.13;42.67;;;6.20;91.30;;;;;;5090138;28;20079;-76
2021/03/10 08:12:35;;;;;;;63.88;38.25;;;6.20;91.10;;;;;;5091165;28;20486;-76
2021/03/10 08:15:01;;;;;;;56.95;32.90;;;6.20;91.00;;;;;;5091302;28;20124;-76
2021/03/10 08:17:28;;;;;;;66.10;37.45;;;6.20;90.90;;;;;;5090459;28;20074;-76
2021/03/10 08:19:56;;;;;;;72.45;44.33;;;6.20;90.90;;;;;;5091654;28;20027;-76
2021/03/10 08:22:27;;;;;;;80.05;43.92;;;6.30;91.00;;;;;;5089963;28;20030;-76
2021/03/10 08:24:54;;;;;;;73.68;42.75;;;6.30;90.90;;;;;;5089903;28;20035;-76
2021/03/10 08:27:30;;;;;;;71.70;40.42;;;6.40;90.90;;;;;;5101733;28;20090;-77
2021/03/10 08:29:56;;;;;;;75.38;42.20;;;6.40;90.90;;;;;;5106899;28;20480;-76
2021/03/10 08:32:24;;;;;;;73.90;40.17;;;6.50;90.80;;;;;;5090685;28;20031;-76
2021/03/10 08:34:50;;;;;;;72.47;41.38;;;6.50;90.70;;;;;;5109444;28;20111;-76
2021/03/10 08:37:16;;;;;;;66.00;38.85;;;6.50;90.70;;;;;;5111117;28;20020;-76
2021/03/10 08:39:46;;;;;;;58.67;32.38;;;6.40;90.60;;;;;;5095294;28;20050;-76
2021/03/10 08:42:22;;;;;;;70.72;37.20;;;6.50;90.60;;;;;;5110987;28;20106;-76
2021/03/10 08:44:51;;;;;;;37.80;20.88;;;6.50;90.60;;;;;;5110138;28;20031;-76
2021/03/10 08:47:22;;;;;;;65.07;38.08;;;6.60;90.50;;;;;;5095292;28;20206;-76
2021/03/10 08:49:59;;;;;;;72.10;41.33;;;6.70;90.40;;;;;;5110552;28;20470;-76
2021/03/10 08:52:26;;;;;;;66.90;39.95;;;6.70;90.30;;;;;;5094448;28;20020;-76
2021/03/10 08:54:52;;;;;;;71.05;41.88;;;6.70;90.20;;;;;;5110248;28;20160;-76
2021/03/10 08:57:20;;;;;;;57.65;34.50;;;6.70;90.20;;;;;;5109693;28;20460;-76
2021/03/10 08:59:46;;;;;;;64.53;37.25;;;6.70;90.00;;;;;;5110640;28;20131;-75
2021/03/10 09:02:13;;;;;;;68.38;43.65;;;6.70;89.70;;;;;;5095181;28;20047;-76
2021/03/10 09:04:46;;;;;;;69.68;41.70;;;6.80;90.00;;;;;;5105693;27;20479;-76
2021/03/10 09:07:14;;;;;;;74.38;42.47;;;6.80;90.00;;;;;;5112847;28;20082;-76
2021/03/10 09:09:40;;;;;;;72.72;41.97;;;6.80;89.90;;;;;;5113923;28;20203;-76
2021/03/10 09:12:06;;;;;;;68.13;40.60;;;6.80;90.10;;;;;;5113856;28;20103;-76
2021/03/10 09:14:35;;;;;;;67.30;42.05;;;6.80;90.00;;;;;;5113557;28;20065;-76
2021/03/10 09:17:01;;;;;;;68.15;40.45;;;6.90;90.00;;;;;;5114958;28;20024;-75
2021/03/10 09:19:32;;;;;;;66.10;37.63;;;6.90;89.50;;;;;;5112893;28;20278;-76
2021/03/10 09:22:07;;;;;;;;;;;6.90;89.00;;;;;;5115631;28;20487;-76
2021/03/10 09:24:33;;;;;;;68.28;37.92;;;6.90;89.00;;;;;;5112630;28;19904;-76
2021/03/10 09:26:59;;;;;;;68.90;40.33;;;6.90;89.50;;;;;;5112359;28;20061;-77
2021/03/10 09:29:24;;;;;;;66.45;39.95;;;7.00;90.00;;;;;;5094689;28;20081;-77
2021/03/10 09:31:56;;;;;;;60.88;38.22;;;7.10;88.80;;;;;;5093950;28;20051;-77
2021/03/10 09:34:23;;;;;;;67.32;39.53;;;7.20;88.30;;;;;;5110945;28;20047;-75
2021/03/10 09:36:48;;;;;;;67.30;41.63;;;7.20;88.20;;;;;;5114267;28;20364;-76
2021/03/10 09:39:14;;;;;;;61.67;39.70;;;7.20;88.40;;;;;;5113456;28;20027;-76
2021/03/10 09:41:46;;;;;;;66.55;38.58;;;7.20;88.20;;;;;;5113324;28;20020;-77
2021/03/10 09:44:12;;;;;;;63.80;39.40;;;7.30;88.00;;;;;;5113323;28;20578;-77
2021/03/10 09:46:47;;;;;;;65.88;38.97;;;7.40;87.50;;;;;;5113526;28;20197;-77
2021/03/10 09:49:12;;;;;;;61.08;38.13;;;7.40;87.40;;;;;;5112994;28;20020;-77
2021/03/10 09:51:49;;;;;;;59.78;38.78;;;7.50;86.10;;;;;;5113116;28;20023;-77
2021/03/10 09:54:14;;;;;;;61.35;37.03;;;7.50;86.30;;;;;;5112986;28;20452;-77
2021/03/10 09:56:51;;;;;;;62.10;36.35;;;7.50;86.30;;;;;;5113633;28;20101;-77
2021/03/10 09:59:16;;;;;;;57.17;31.98;;;7.50;86.10;;;;;;5112957;28;20015;-77
2021/03/10 10:01:48;;;;;;;65.68;38.72;;;7.50;86.20;;;;;;5111956;28;20012;-77
2021/03/10 10:04:14;;;;;;;57.33;35.47;;;7.50;86.30;;;;;;5112757;28;20016;-77
2021/03/10 10:06:58;;;;;;;133.43;41.13;;;7.60;85.60;;;;;;5112515;28;20043;-77
2021/03/10 10:09:23;;;;;;;59.70;34.22;;;7.60;85.40;;;;;;5113672;28;20024;-77
2021/03/10 10:11:49;;;;;;;59.95;37.15;;;7.60;85.20;;;;;;5111989;28;20034;-77
2021/03/10 10:14:14;;;;;;;61.28;35.72;;;7.70;85.20;;;;;;5113666;28;20470;-77
2021/03/10 10:16:40;;;;;;;53.72;33.88;;;7.80;84.80;;;;;;5114249;28;20477;-77
2021/03/10 10:19:06;;;;;;;57.83;36.00;;;7.80;84.40;;;;;;5110967;28;20463;-77
2021/03/10 10:21:31;;;;;;;57.00;34.15;;;7.80;84.20;;;;;;5111480;28;20024;-77
2021/03/10 10:23:59;;;;;;;55.40;32.20;;;7.90;84.80;;;;;;5111189;28;20016;-77
2021/03/10 10:26:25;;;;;;;57.65;35.78;;;7.90;84.40;;;;;;5108742;27;20049;-77
2021/03/10 10:28:50;;;;;;;48.25;32.28;;;7.90;84.40;;;;;;5109438;28;20031;-76
2021/03/10 10:31:16;;;;;;;54.63;34.47;;;8.00;84.00;;;;;;5113514;28;20465;-76
2021/03/10 10:33:41;;;;;;;52.97;34.33;;;8.00;83.80;;;;;;5112316;28;20410;-76
2021/03/10 10:36:07;;;;;;;40.83;26.05;;;8.00;83.80;;;;;;5099357;28;20024;-77
2021/03/10 10:38:32;;;;;;;55.42;34.60;;;8.10;84.40;;;;;;5097739;28;20019;-77
2021/03/10 10:40:58;;;;;;;55.58;33.03;;;8.20;83.70;;;;;;5090346;28;20030;-77
2021/03/10 10:43:24;;;;;;;52.88;33.10;;;8.20;83.40;;;;;;5091143;28;20079;-77
2021/03/10 10:45:49;;;;;;;51.08;32.50;;;8.30;82.60;;;;;;5091940;28;20027;-78
2021/03/10 10:48:15;;;;;;;44.92;29.42;;;8.40;82.20;;;;;;5090291;28;20352;-77
2021/03/10 10:50:40;;;;;;;49.40;33.03;;;8.40;81.30;;;;;;5090757;28;20020;-77
2021/03/10 10:53:06;;;;;;;42.70;27.33;;;8.40;81.40;;;;;;5091381;28;20015;-76
2021/03/10 10:55:32;;;;;;;50.80;30.23;;;8.50;82.30;;;;;;5092616;28;20052;-78
2021/03/10 10:57:57;;;;;;;35.72;22.15;;;8.60;81.40;;;;;;5090531;28;20016;-77
2021/03/10 11:00:26;;;;;;;44.85;27.25;;;8.60;82.20;;;;;;5091361;28;20020;-77
2021/03/10 11:02:52;;;;;;;42.85;27.45;;;8.70;80.60;;;;;;5092505;28;20471;-76
2021/03/10 11:05:17;;;;;;;36.67;23.92;;;8.70;80.50;;;;;;5092257;28;20091;-77
2021/03/10 11:07:43;;;;;;;47.58;29.98;;;8.70;80.50;;;;;;5091639;28;20459;-75
2021/03/10 11:10:09;;;;;;;45.05;26.92;;;8.70;78.90;;;;;;5091199;28;20020;-77
2021/03/10 11:12:34;;;;;;;36.83;22.65;;;8.60;79.50;;;;;;5091422;28;20467;-77
2021/03/10 11:15:01;;;;;;;41.13;26.58;;;8.70;81.40;;;;;;5092375;28;20020;-77
2021/03/10 11:17:27;;;;;;;36.17;23.48;;;8.60;79.50;;;;;;5091294;28;20356;-77
2021/03/10 11:19:52;;;;;;;42.35;23.35;;;8.60;79.30;;;;;;5091969;28;20051;-77
2021/03/10 11:22:18;;;;;;;39.30;23.92;;;8.60;79.20;;;;;;5092555;28;20406;-75
2021/03/10 11:24:43;;;;;;;44.75;26.08;;;8.70;79.50;;;;;;5091164;28;20109;-76
2021/03/10 11:27:09;;;;;;;36.30;23.35;;;8.70;77.80;;;;;;5090852;28;20023;-76
2021/03/10 11:29:35;;;;;;;45.20;26.55;;;8.70;78.90;;;;;;5092402;28;20405;-76
2021/03/10 11:32:01;;;;;;;32.97;23.55;;;8.80;78.40;;;;;;5105660;28;20039;-77
2021/03/10 11:34:29;;;;;;;34.03;22.70;;;8.80;77.70;;;;;;5102716;28;20020;-77
2021/03/10 11:36:55;;;;;;;38.28;22.05;;;8.90;77.40;;;;;;5092178;28;20024;-76
2021/03/10 11:39:21;;;;;;;37.38;24.13;;;8.90;75.90;;;;;;5091844;28;20020;-76
2021/03/10 11:41:46;;;;;;;32.63;22.02;;;8.90;77.40;;;;;;5103748;28;20052;-77
2021/03/10 11:44:12;;;;;;;38.65;21.30;;;9.00;76.80;;;;;;5093103;28;20099;-76
2021/03/10 11:46:38;;;;;;;33.72;20.75;;;9.00;74.60;;;;;;5098864;28;20439;-75
2021/03/10 11:49:04;;;;;;;28.38;18.67;;;9.10;77.70;;;;;;5110636;28;20448;-78
2021/03/10 11:51:30;;;;;;;30.33;19.42;;;9.10;75.40;;;;;;5099308;28;20012;-77
2021/03/10 11:53:56;;;;;;;34.35;22.95;;;9.10;75.20;;;;;;5105701;28;20092;-76
2021/03/10 11:56:21;;;;;;;34.55;22.02;;;9.20;75.80;;;;;;5093951;28;20024;-75
2021/03/10 11:58:47;;;;;;;34.13;20.70;;;9.20;74.40;;;;;;5105116;28;20039;-75
2021/03/10 12:01:12;;;;;;;29.15;17.52;;;9.20;76.50;;;;;;5101342;28;20460;-75
2021/03/10 12:03:38;;;;;;;31.33;17.88;;;9.20;76.00;;;;;;5105008;28;20027;-76
2021/03/10 12:06:05;;;;;;;33.08;19.80;;;9.30;76.50;;;;;;5111705;28;20039;-76
2021/03/10 12:08:31;;;;;;;35.70;20.63;;;9.30;75.40;;;;;;5111399;28;20016;-76
2021/03/10 12:10:56;;;;;;;34.38;21.60;;;9.30;74.10;;;;;;5115088;28;20027;-75
2021/03/10 12:13:22;;;;;;;34.97;19.85;;;9.30;73.70;;;;;;5115241;28;20027;-76
2021/03/10 12:15:48;;;;;;;37.17;21.50;;;9.40;73.50;;;;;;5116423;28;20032;-76
2021/03/10 12:18:14;;;;;;;28.63;17.55;;;9.50;73.80;;;;;;5114853;28;20016;-77
2021/03/10 12:20:40;;;;;;;31.58;18.00;;;9.50;74.30;;;;;;5115123;28;20110;-76
2021/03/10 12:23:05;;;;;;;24.33;16.42;;;9.60;74.70;;;;;;5115867;28;20444;-77
2021/03/10 12:25:31;;;;;;;28.70;19.23;;;9.70;76.00;;;;;;5115004;28;20019;-76
2021/03/10 12:27:57;;;;;;;26.15;16.17;;;9.70;73.80;;;;;;5114654;28;20084;-76
2021/03/10 12:30:23;;;;;;;32.67;19.88;;;9.70;73.90;;;;;;5114865;28;20034;-76
2021/03/10 12:32:49;;;;;;;18.48;11.77;;;9.80;73.40;;;;;;5114778;28;20459;-76
2021/03/10 12:35:15;;;;;;;31.52;18.25;;;9.90;75.40;;;;;;5114563;28;20011;-76
2021/03/10 12:37:41;;;;;;;20.63;13.07;;;10.00;72.10;;;;;;5115913;28;20098;-76
2021/03/10 12:40:07;;;;;;;22.85;13.38;;;10.10;73.80;;;;;;5114247;28;20380;-78
2021/03/10 12:42:33;;;;;;;29.83;17.35;;;10.10;75.40;;;;;;5114585;28;20033;-77